Alidaunia Foggia Heliport

IT-0572 · Apulia, Włochy

Historia METAR IT-0572 · Alidaunia Foggia Heliport

Poniżej widzisz METAR-y z ostatnich kilku dni. Wybierz rok, aby przeglądać starsze METAR-y, począwszy od roku 2007.

18 lipca 2024

Czas Kod Pogoda Temp. Widoczność Sufit Wiatr METAR/SPECI
20:50
V
32 °C 10 km+ - 300° 300° 7 kt METAR LIBF 181850Z 30007KT CAVOK 32/19 Q1015
19:50
V
35 °C 10 km+ - 340° 340° 11 kt METAR LIBF 181750Z 34011KT 9999 FEW060 35/17 Q1015
18:50
V
37 °C 10 km+ - 360° 360° 11 kt METAR LIBF 181650Z 36011KT 9999 FEW060 37/14 Q1014
17:50
V
39 °C 10 km+ - 340° 340° 14 kt METAR LIBF 181550Z 34014KT 9999 FEW060 39/13 Q1013
16:50
V
40 °C 10 km+ - 320° 320° 11 kt METAR LIBF 181450Z 32011KT 300V030 9999 FEW060 40/13 Q1013
15:50
V
40 °C 10 km+ - 350° 350° 7 kt METAR LIBF 181350Z 35007KT 310V060 CAVOK 40/13 Q1014
14:50
V
40 °C 10 km+ - 020° 020° 7 kt METAR LIBF 181250Z 02007KT 340V080 CAVOK 40/13 Q1014
13:50
V
39 °C 10 km+ - 010° 010° 7 kt METAR LIBF 181150Z 01007KT 310V050 CAVOK 39/12 Q1014
12:50
V
39 °C 10 km+ - 340° 340° 10 kt METAR LIBF 181050Z 34010KT 310V010 CAVOK 39/13 Q1015
11:50
V
38 °C 10 km+ - 320° 320° 9 kt METAR LIBF 180950Z 32009KT 290V010 CAVOK 38/13 Q1015
10:50
V
37 °C 10 km+ - 330° 330° 11 kt METAR LIBF 180850Z 33011KT 300V360 CAVOK 37/14 Q1015
09:50
V
35 °C 10 km+ - 330° 330° 13 kt METAR LIBF 180750Z 33013KT CAVOK 35/16 Q1015
08:50
V
33 °C 10 km+ - 310° 310° 12 kt METAR LIBF 180650Z 31012KT CAVOK 33/16 Q1015
07:50
V
31 °C 10 km+ - 300° 300° 9 kt METAR LIBF 180550Z 30009KT CAVOK 31/15 Q1015

17 lipca 2024

Czas Kod Pogoda Temp. Widoczność Sufit Wiatr METAR/SPECI
22:50
V
30 °C 10 km+ - 300° 300° 6 kt METAR LIBF 172050Z 30006KT CAVOK 30/16 Q1015
21:50
V
32 °C 10 km+ - 310° 310° 4 kt METAR LIBF 171950Z 31004KT CAVOK 32/13 Q1014
20:50
V
33 °C 10 km+ - 250° 250° 3 kt METAR LIBF 171850Z 25003KT CAVOK 33/13 Q1014
19:50
V
35 °C 10 km+ - 150° 150° 6 kt METAR LIBF 171750Z 15006KT CAVOK 35/14 Q1013
18:50
V
37 °C 10 km+ - 120° 120° 9 kt METAR LIBF 171650Z 12009KT 090V160 9999 FEW060 37/14 Q1012
17:50
V
38 °C 10 km+ - 120° 120° 11 kt METAR LIBF 171550Z 12011KT 9999 FEW060 38/14 Q1012
16:50
V
38 °C 10 km+ - 100° 100° 11 kt METAR LIBF 171450Z 10011KT 9999 FEW060 38/15 Q1012
15:50
V
40 °C 10 km+ - Var Var 7 kt METAR LIBF 171350Z VRB07KT 9999 FEW060 40/12 Q1012
14:50
V
40 °C 10 km+ - 040° 040° 8 kt METAR LIBF 171250Z 04008KT 310V080 9999 FEW060 40/12 Q1012
13:50
V
39 °C 10 km+ - 300° 300° 7 kt METAR LIBF 171150Z 30007KT 230V010 9999 FEW060 39/12 Q1013
12:50
V
40 °C 10 km+ - 330° 330° 7 kt METAR LIBF 171050Z 33007KT 260V040 9999 FEW060 40/12 Q1013
11:50
V
38 °C 10 km+ - 020° 020° 7 kt METAR LIBF 170950Z 02007KT 300V060 CAVOK 38/13 Q1013
10:50
V
37 °C 10 km+ - 320° 320° 8 kt METAR LIBF 170850Z 32008KT 290V360 CAVOK 37/12 Q1013
09:50
V
35 °C 10 km+ - 330° 330° 11 kt METAR LIBF 170750Z 33011KT 290V350 CAVOK 35/13 Q1014
08:50
V
33 °C 10 km+ - 320° 320° 11 kt METAR LIBF 170650Z 32011KT CAVOK 33/17 Q1013
07:50
V
30 °C 10 km+ - 310° 310° 10 kt METAR LIBF 170550Z 31010KT CAVOK 30/16 Q1013
07:00
V
29 °C 10 km+ - 300° 300° 9 kt METAR LIBF 170500Z 30009KT CAVOK 29/13 Q1013

16 lipca 2024

Czas Kod Pogoda Temp. Widoczność Sufit Wiatr METAR/SPECI
22:50
V
29 °C 10 km+ - 330° 330° 4 kt METAR LIBF 162050Z 33004KT CAVOK 29/15 Q1012
21:50
V
31 °C 10 km+ - 180° 180° 2 kt METAR LIBF 161950Z 18002KT CAVOK 31/15 Q1012
20:50
V
32 °C 10 km+ - 170° 170° 4 kt METAR LIBF 161850Z 17004KT CAVOK 32/15 Q1011
19:50
V
34 °C 10 km+ - 130° 130° 8 kt METAR LIBF 161750Z 13008KT CAVOK 34/15 Q1011
18:50
V
35 °C 10 km+ - 120° 120° 10 kt METAR LIBF 161650Z 12010KT 9999 FEW040 35/15 Q1010
17:50
V
37 °C 10 km+ - 130° 130° 10 kt METAR LIBF 161550Z 13010KT 9999 FEW040 37/15 Q1010
16:50
V
38 °C 10 km+ - 100° 100° 12 kt METAR LIBF 161450Z 10012KT 9999 FEW040 38/14 Q1010
15:50
V
38 °C 10 km+ - 100° 100° 14 kt METAR LIBF 161350Z 10014KT 9999 FEW040 38/14 Q1010
15:10
V
40 °C 10 km+ - 080° 080° 10 kt METAR LIBF 161310Z 08010KT 040V110 9999 FEW040 40/14 Q1010
14:50
V
40 °C 10 km+ - 350° 350° 8 kt METAR LIBF 161250Z 35008KT 300V060 CAVOK 40/12 Q1010
13:50
V
40 °C 10 km+ - 330° 330° 7 kt METAR LIBF 161150Z 33007KT 250V050 CAVOK 40/11 Q1010
12:50
V
40 °C 10 km+ - Var Var 4 kt METAR LIBF 161050Z VRB04KT CAVOK 40/11 Q1011
11:50
V
39 °C 10 km+ - Var Var 6 kt METAR LIBF 160950Z VRB06KT CAVOK 39/12 Q1011
10:50
V
37 °C 10 km+ - 330° 330° 4 kt METAR LIBF 160850Z 33004KT 290V090 CAVOK 37/13 Q1012
09:50
V
35 °C 10 km+ - Var Var 3 kt METAR LIBF 160750Z VRB03KT CAVOK 35/13 Q1012
08:50
V
34 °C 10 km+ - 350° 350° 3 kt METAR LIBF 160650Z 35003KT 300V100 CAVOK 34/13 Q1012
07:50
V
31 °C 10 km+ - Var Var 1 kt METAR LIBF 160550Z VRB01KT CAVOK 31/14 Q1012
Zgłoś zmianę